sensor_id;sensor_type;location;lat;lon;timestamp;pressure;altitude;pressure_sealevel;temperature;humidity
50774;BME280;36745;48.544;8.918;2024-01-10T00:00:11;98115.19;;;-5.66;77.95
50774;BME280;36745;48.544;8.918;2024-01-10T00:03:30;98118.22;;;-5.68;77.55
50774;BME280;36745;48.544;8.918;2024-01-10T00:06:50;98108.72;;;-5.65;78.12
50774;BME280;36745;48.544;8.918;2024-01-10T00:10:10;98115.22;;;-5.58;77.72
50774;BME280;36745;48.544;8.918;2024-01-10T00:13:33;98116.59;;;-5.77;78.82
50774;BME280;36745;48.544;8.918;2024-01-10T00:16:52;98107.13;;;-5.66;78.70
50774;BME280;36745;48.544;8.918;2024-01-10T00:20:12;98109.81;;;-5.75;79.06
50774;BME280;36745;48.544;8.918;2024-01-10T00:23:32;98109.19;;;-5.72;79.72
50774;BME280;36745;48.544;8.918;2024-01-10T00:26:52;98113.31;;;-5.66;80.26
50774;BME280;36745;48.544;8.918;2024-01-10T00:30:12;98104.28;;;-5.61;80.07
50774;BME280;36745;48.544;8.918;2024-01-10T00:33:31;98100.50;;;-5.60;80.68
50774;BME280;36745;48.544;8.918;2024-01-10T00:36:51;98102.09;;;-5.59;81.04
50774;BME280;36745;48.544;8.918;2024-01-10T00:40:11;98088.69;;;-5.51;80.58
50774;BME280;36745;48.544;8.918;2024-01-10T00:43:31;98080.63;;;-5.51;81.39
50774;BME280;36745;48.544;8.918;2024-01-10T00:46:51;98083.59;;;-5.26;79.68
50774;BME280;36745;48.544;8.918;2024-01-10T00:50:11;98085.81;;;-5.37;80.10
50774;BME280;36745;48.544;8.918;2024-01-10T00:53:30;98077.28;;;-5.30;81.59
50774;BME280;36745;48.544;8.918;2024-01-10T00:56:50;98084.06;;;-5.24;81.68
50774;BME280;36745;48.544;8.918;2024-01-10T01:00:11;98077.28;;;-5.30;80.62
50774;BME280;36745;48.544;8.918;2024-01-10T01:03:30;98076.47;;;-5.31;80.85
50774;BME280;36745;48.544;8.918;2024-01-10T01:06:50;98074.88;;;-5.15;80.08
50774;BME280;36745;48.544;8.918;2024-01-10T01:10:10;98081.78;;;-4.96;79.14
50774;BME280;36745;48.544;8.918;2024-01-10T01:13:30;98084.63;;;-5.01;78.94
50774;BME280;36745;48.544;8.918;2024-01-10T01:16:49;98083.06;;;-5.02;79.66
50774;BME280;36745;48.544;8.918;2024-01-10T01:20:09;98080.19;;;-4.89;79.31
50774;BME280;36745;48.544;8.918;2024-01-10T01:23:29;98083.69;;;-4.97;80.00
50774;BME280;36745;48.544;8.918;2024-01-10T01:26:49;98090.13;;;-4.81;78.75
50774;BME280;36745;48.544;8.918;2024-01-10T01:30:09;98093.63;;;-4.89;78.71
50774;BME280;36745;48.544;8.918;2024-01-10T01:33:30;98089.84;;;-4.88;78.16
50774;BME280;36745;48.544;8.918;2024-01-10T01:36:50;98089.19;;;-4.85;78.59
50774;BME280;36745;48.544;8.918;2024-01-10T01:40:11;98088.06;;;-4.84;79.57
50774;BME280;36745;48.544;8.918;2024-01-10T01:43:30;98093.94;;;-4.82;79.80
50774;BME280;36745;48.544;8.918;2024-01-10T01:46:50;98079.38;;;-4.81;80.76
50774;BME280;36745;48.544;8.918;2024-01-10T01:50:10;98085.50;;;-4.72;79.28
50774;BME280;36745;48.544;8.918;2024-01-10T01:53:30;98091.50;;;-4.66;78.81
50774;BME280;36745;48.544;8.918;2024-01-10T01:56:50;98089.44;;;-4.60;78.62
50774;BME280;36745;48.544;8.918;2024-01-10T02:00:10;98075.66;;;-4.59;79.14
50774;BME280;36745;48.544;8.918;2024-01-10T02:03:31;98079.41;;;-4.51;78.30
50774;BME280;36745;48.544;8.918;2024-01-10T02:06:52;98082.59;;;-4.58;79.07
50774;BME280;36745;48.544;8.918;2024-01-10T02:10:12;98087.63;;;-4.86;78.84
50774;BME280;36745;48.544;8.918;2024-01-10T02:13:32;98089.06;;;-4.97;80.48
50774;BME280;36745;48.544;8.918;2024-01-10T02:16:52;98087.28;;;-4.84;80.74
50774;BME280;36745;48.544;8.918;2024-01-10T02:20:15;98087.13;;;-4.88;80.59
50774;BME280;36745;48.544;8.918;2024-01-10T02:23:36;98078.31;;;-4.97;81.01
50774;BME280;36745;48.544;8.918;2024-01-10T02:26:56;98074.84;;;-4.97;81.95
50774;BME280;36745;48.544;8.918;2024-01-10T02:30:15;98077.00;;;-4.91;82.07
50774;BME280;36745;48.544;8.918;2024-01-10T02:33:35;98064.06;;;-4.51;79.51
50774;BME280;36745;48.544;8.918;2024-01-10T02:36:55;98071.22;;;-4.63;80.19
50774;BME280;36745;48.544;8.918;2024-01-10T02:40:15;98069.31;;;-4.54;80.64
50774;BME280;36745;48.544;8.918;2024-01-10T02:43:35;98064.38;;;-4.52;81.35
50774;BME280;36745;48.544;8.918;2024-01-10T02:46:55;98069.03;;;-4.32;80.32
50774;BME280;36745;48.544;8.918;2024-01-10T02:50:15;98063.84;;;-4.37;79.96
50774;BME280;36745;48.544;8.918;2024-01-10T02:53:35;98062.59;;;-4.40;79.96
50774;BME280;36745;48.544;8.918;2024-01-10T02:56:55;98057.84;;;-4.43;80.66
50774;BME280;36745;48.544;8.918;2024-01-10T03:00:15;98053.25;;;-4.42;80.66
50774;BME280;36745;48.544;8.918;2024-01-10T03:03:35;98059.75;;;-4.43;81.20
50774;BME280;36745;48.544;8.918;2024-01-10T03:06:55;98049.72;;;-4.34;80.98
50774;BME280;36745;48.544;8.918;2024-01-10T03:10:15;98051.72;;;-4.22;78.85
50774;BME280;36745;48.544;8.918;2024-01-10T03:13:35;98045.25;;;-4.30;78.79
50774;BME280;36745;48.544;8.918;2024-01-10T03:16:55;98044.25;;;-4.46;79.53
50774;BME280;36745;48.544;8.918;2024-01-10T03:20:15;98037.47;;;-4.52;79.28
50774;BME280;36745;48.544;8.918;2024-01-10T03:23:34;98037.47;;;-4.52;80.94
50774;BME280;36745;48.544;8.918;2024-01-10T03:26:54;98041.00;;;-4.60;81.19
50774;BME280;36745;48.544;8.918;2024-01-10T03:30:14;98043.44;;;-4.38;80.00
50774;BME280;36745;48.544;8.918;2024-01-10T03:33:37;98036.94;;;-4.37;79.52
50774;BME280;36745;48.544;8.918;2024-01-10T03:37:00;98037.75;;;-4.45;80.51
50774;BME280;36745;48.544;8.918;2024-01-10T03:40:19;98038.50;;;-4.36;80.47
50774;BME280;36745;48.544;8.918;2024-01-10T03:43:39;98047.97;;;-4.30;80.38
50774;BME280;36745;48.544;8.918;2024-01-10T03:46:59;98040.34;;;-4.28;81.02
50774;BME280;36745;48.544;8.918;2024-01-10T03:50:19;98045.44;;;-4.27;80.83
50774;BME280;36745;48.544;8.918;2024-01-10T03:53:39;98051.06;;;-4.19;80.52
50774;BME280;36745;48.544;8.918;2024-01-10T03:56:59;98044.09;;;-4.20;80.72
50774;BME280;36745;48.544;8.918;2024-01-10T04:00:18;98044.25;;;-4.17;79.84
50774;BME280;36745;48.544;8.918;2024-01-10T04:03:38;98044.88;;;-4.20;80.06
50774;BME280;36745;48.544;8.918;2024-01-10T04:07:00;98047.19;;;-4.10;79.96
50774;BME280;36745;48.544;8.918;2024-01-10T04:10:20;98044.50;;;-4.10;79.52
50774;BME280;36745;48.544;8.918;2024-01-10T04:13:40;98045.44;;;-4.06;77.83
50774;BME280;36745;48.544;8.918;2024-01-10T04:17:00;98048.66;;;-4.12;78.06
50774;BME280;36745;48.544;8.918;2024-01-10T04:20:20;98046.09;;;-4.09;78.14
50774;BME280;36745;48.544;8.918;2024-01-10T04:23:40;98048.97;;;-4.14;77.89
50774;BME280;36745;48.544;8.918;2024-01-10T04:27:00;98054.34;;;-4.14;77.83
50774;BME280;36745;48.544;8.918;2024-01-10T04:30:20;98065.13;;;-4.14;78.28
50774;BME280;36745;48.544;8.918;2024-01-10T04:33:40;98060.03;;;-4.07;78.02
50774;BME280;36745;48.544;8.918;2024-01-10T04:36:59;98052.41;;;-4.05;78.42
50774;BME280;36745;48.544;8.918;2024-01-10T04:40:19;98054.91;;;-4.00;78.15
50774;BME280;36745;48.544;8.918;2024-01-10T04:43:39;98057.13;;;-4.02;78.43
50774;BME280;36745;48.544;8.918;2024-01-10T04:46:58;98064.22;;;-3.97;78.66
50774;BME280;36745;48.544;8.918;2024-01-10T04:50:18;98067.19;;;-4.11;79.42
50774;BME280;36745;48.544;8.918;2024-01-10T04:53:38;98062.59;;;-3.90;78.27
50774;BME280;36745;48.544;8.918;2024-01-10T04:56:58;98063.19;;;-4.05;79.09
50774;BME280;36745;48.544;8.918;2024-01-10T05:00:18;98051.75;;;-4.02;78.33
50774;BME280;36745;48.544;8.918;2024-01-10T05:03:40;98050.97;;;-4.02;78.13
50774;BME280;36745;48.544;8.918;2024-01-10T05:07:00;98051.88;;;-3.98;77.67
50774;BME280;36745;48.544;8.918;2024-01-10T05:10:20;98045.09;;;-4.04;77.93
50774;BME280;36745;48.544;8.918;2024-01-10T05:13:39;98036.56;;;-4.27;78.45
50774;BME280;36745;48.544;8.918;2024-01-10T05:16:59;98036.38;;;-4.22;78.33
50774;BME280;36745;48.544;8.918;2024-01-10T05:20:19;98041.69;;;-4.13;77.96
50774;BME280;36745;48.544;8.918;2024-01-10T05:23:39;98046.56;;;-4.07;78.00
50774;BME280;36745;48.544;8.918;2024-01-10T05:26:59;98048.06;;;-4.18;76.75
50774;BME280;36745;48.544;8.918;2024-01-10T05:30:19;98049.59;;;-4.38;77.81
50774;BME280;36745;48.544;8.918;2024-01-10T05:33:39;98053.34;;;-4.59;78.98
50774;BME280;36745;48.544;8.918;2024-01-10T05:37:00;98057.44;;;-4.53;79.26
50774;BME280;36745;48.544;8.918;2024-01-10T05:40:20;98064.44;;;-4.61;78.63
50774;BME280;36745;48.544;8.918;2024-01-10T05:43:40;98067.44;;;-4.62;79.27
50774;BME280;36745;48.544;8.918;2024-01-10T05:47:00;98068.53;;;-4.63;78.54
50774;BME280;36745;48.544;8.918;2024-01-10T05:50:20;98067.31;;;-4.75;78.51
50774;BME280;36745;48.544;8.918;2024-01-10T05:53:40;98063.41;;;-4.86;80.18
50774;BME280;36745;48.544;8.918;2024-01-10T05:57:00;98062.28;;;-4.85;81.31
50774;BME280;36745;48.544;8.918;2024-01-10T06:00:20;98057.38;;;-4.83;80.87
50774;BME280;36745;48.544;8.918;2024-01-10T06:03:40;98067.03;;;-4.82;80.96
50774;BME280;36745;48.544;8.918;2024-01-10T06:07:00;98051.53;;;-4.85;80.86
50774;BME280;36745;48.544;8.918;2024-01-10T06:10:20;98059.28;;;-4.83;80.03
50774;BME280;36745;48.544;8.918;2024-01-10T06:13:40;98056.03;;;-5.06;81.04
50774;BME280;36745;48.544;8.918;2024-01-10T06:16:59;98056.22;;;-5.20;81.23
50774;BME280;36745;48.544;8.918;2024-01-10T06:20:20;98050.06;;;-5.20;81.61
50774;BME280;36745;48.544;8.918;2024-01-10T06:23:40;98048.34;;;-5.25;81.61
50774;BME280;36745;48.544;8.918;2024-01-10T06:27:00;98053.50;;;-5.11;81.22
50774;BME280;36745;48.544;8.918;2024-01-10T06:30:20;98052.28;;;-5.22;80.10
50774;BME280;36745;48.544;8.918;2024-01-10T06:33:39;98064.16;;;-5.32;79.98
50774;BME280;36745;48.544;8.918;2024-01-10T06:36:59;98064.00;;;-5.35;79.58
50774;BME280;36745;48.544;8.918;2024-01-10T06:40:19;98073.97;;;-5.36;80.92
50774;BME280;36745;48.544;8.918;2024-01-10T06:43:41;98076.97;;;-5.37;81.13
50774;BME280;36745;48.544;8.918;2024-01-10T06:47:01;98072.56;;;-5.51;81.90
50774;BME280;36745;48.544;8.918;2024-01-10T06:50:21;98068.28;;;-5.52;83.93
50774;BME280;36745;48.544;8.918;2024-01-10T06:53:40;98084.84;;;-5.50;81.97
50774;BME280;36745;48.544;8.918;2024-01-10T06:57:00;98079.34;;;-5.62;83.28
50774;BME280;36745;48.544;8.918;2024-01-10T07:00:21;98080.75;;;-5.56;83.21
50774;BME280;36745;48.544;8.918;2024-01-10T07:03:41;98078.22;;;-5.61;84.03
50774;BME280;36745;48.544;8.918;2024-01-10T07:07:01;98083.16;;;-5.63;83.67
50774;BME280;36745;48.544;8.918;2024-01-10T07:10:21;98095.75;;;-5.80;84.08
50774;BME280;36745;48.544;8.918;2024-01-10T07:13:45;98102.88;;;-5.76;84.25
50774;BME280;36745;48.544;8.918;2024-01-10T07:17:04;98103.50;;;-5.79;84.48
50774;BME280;36745;48.544;8.918;2024-01-10T07:20:24;98105.72;;;-5.72;84.11
50774;BME280;36745;48.544;8.918;2024-01-10T07:23:44;98102.41;;;-5.69;84.10
50774;BME280;36745;48.544;8.918;2024-01-10T07:27:04;98099.28;;;-5.88;84.71
50774;BME280;36745;48.544;8.918;2024-01-10T07:30:24;98114.75;;;-5.94;85.71
50774;BME280;36745;48.544;8.918;2024-01-10T07:33:44;98112.66;;;-5.80;86.41
50774;BME280;36745;48.544;8.918;2024-01-10T07:37:03;98114.25;;;-5.87;85.91
50774;BME280;36745;48.544;8.918;2024-01-10T07:40:26;98113.47;;;-5.71;85.51
50774;BME280;36745;48.544;8.918;2024-01-10T07:43:45;98115.34;;;-5.71;86.16
50774;BME280;36745;48.544;8.918;2024-01-10T07:47:05;98121.22;;;-5.78;86.32
50774;BME280;36745;48.544;8.918;2024-01-10T07:50:26;98128.16;;;-5.60;86.56
50774;BME280;36745;48.544;8.918;2024-01-10T07:53:47;98130.22;;;-5.48;85.95
50774;BME280;36745;48.544;8.918;2024-01-10T07:57:07;98131.47;;;-5.37;84.60
50774;BME280;36745;48.544;8.918;2024-01-10T08:00:27;98135.75;;;-5.27;84.17
50774;BME280;36745;48.544;8.918;2024-01-10T08:03:47;98127.22;;;-5.29;84.21
50774;BME280;36745;48.544;8.918;2024-01-10T08:07:06;98132.28;;;-5.36;85.26
50774;BME280;36745;48.544;8.918;2024-01-10T08:10:26;98142.25;;;-5.45;85.80
50774;BME280;36745;48.544;8.918;2024-01-10T08:13:47;98142.88;;;-5.31;86.32
50774;BME280;36745;48.544;8.918;2024-01-10T08:17:06;98149.00;;;-5.39;86.46
50774;BME280;36745;48.544;8.918;2024-01-10T08:20:26;98143.97;;;-5.50;87.32
50774;BME280;36745;48.544;8.918;2024-01-10T08:23:46;98144.59;;;-5.27;87.28
50774;BME280;36745;48.544;8.918;2024-01-10T08:27:06;98150.59;;;-5.21;87.01
50774;BME280;36745;48.544;8.918;2024-01-10T08:30:27;98142.41;;;-5.42;87.71
50774;BME280;36745;48.544;8.918;2024-01-10T08:33:47;98146.97;;;-5.34;87.64
50774;BME280;36745;48.544;8.918;2024-01-10T08:37:07;98146.81;;;-5.20;87.80
50774;BME280;36745;48.544;8.918;2024-01-10T08:40:27;98155.03;;;-5.08;87.94
50774;BME280;36745;48.544;8.918;2024-01-10T08:43:47;98145.56;;;-5.14;87.82
50774;BME280;36745;48.544;8.918;2024-01-10T08:47:06;98156.91;;;-5.00;87.64
50774;BME280;36745;48.544;8.918;2024-01-10T08:50:26;98152.31;;;-4.82;87.29
50774;BME280;36745;48.544;8.918;2024-01-10T08:53:46;98159.38;;;-4.60;86.66
50774;BME280;36745;48.544;8.918;2024-01-10T08:57:06;98169.50;;;-4.75;86.23
50774;BME280;36745;48.544;8.918;2024-01-10T09:00:26;98172.34;;;-4.62;85.74
50774;BME280;36745;48.544;8.918;2024-01-10T09:03:46;98165.28;;;-4.29;85.00
50774;BME280;36745;48.544;8.918;2024-01-10T09:07:07;98168.28;;;-4.22;84.50
50774;BME280;36745;48.544;8.918;2024-01-10T09:10:26;98180.34;;;-4.37;83.47
50774;BME280;36745;48.544;8.918;2024-01-10T09:13:48;98184.44;;;-4.31;84.21
50774;BME280;36745;48.544;8.918;2024-01-10T09:17:09;98188.03;;;-4.18;84.12
50774;BME280;36745;48.544;8.918;2024-01-10T09:20:28;98191.47;;;-4.09;83.70
50774;BME280;36745;48.544;8.918;2024-01-10T09:23:48;98182.78;;;-4.06;82.24
50774;BME280;36745;48.544;8.918;2024-01-10T09:27:10;98180.94;;;-4.22;82.78
50774;BME280;36745;48.544;8.918;2024-01-10T09:30:30;98180.06;;;-4.06;82.85
50774;BME280;36745;48.544;8.918;2024-01-10T09:33:50;98182.22;;;-3.91;83.67
50774;BME280;36745;48.544;8.918;2024-01-10T09:37:09;98182.94;;;-3.82;83.31
50774;BME280;36745;48.544;8.918;2024-01-10T09:40:29;98186.47;;;-4.19;82.49
50774;BME280;36745;48.544;8.918;2024-01-10T09:43:49;98187.59;;;-3.91;83.39
50774;BME280;36745;48.544;8.918;2024-01-10T09:47:09;98187.78;;;-3.66;82.40
50774;BME280;36745;48.544;8.918;2024-01-10T09:50:29;98184.53;;;-3.51;82.33
50774;BME280;36745;48.544;8.918;2024-01-10T09:53:51;98187.28;;;-3.39;80.86
50774;BME280;36745;48.544;8.918;2024-01-10T09:57:14;98186.38;;;-3.43;81.12
50774;BME280;36745;48.544;8.918;2024-01-10T10:00:34;98189.16;;;-3.31;81.14
50774;BME280;36745;48.544;8.918;2024-01-10T10:03:57;98188.06;;;-3.18;80.25
50774;BME280;36745;48.544;8.918;2024-01-10T10:07:18;98173.47;;;-3.17;79.32
50774;BME280;36745;48.544;8.918;2024-01-10T10:10:38;98186.56;;;-3.07;78.89
50774;BME280;36745;48.544;8.918;2024-01-10T10:14:15;98180.56;;;-3.12;78.69
50774;BME280;36745;48.544;8.918;2024-01-10T10:17:35;98190.44;;;-3.37;77.99
50774;BME280;36745;48.544;8.918;2024-01-10T10:21:08;98185.19;;;-3.13;77.51
50774;BME280;36745;48.544;8.918;2024-01-10T10:24:31;98188.53;;;-2.95;77.87
50774;BME280;36745;48.544;8.918;2024-01-10T10:27:51;98187.84;;;-2.71;77.92
50774;BME280;36745;48.544;8.918;2024-01-10T10:31:11;98175.78;;;-2.74;76.45
50774;BME280;36745;48.544;8.918;2024-01-10T10:34:31;98173.75;;;-3.10;76.35
50774;BME280;36745;48.544;8.918;2024-01-10T10:37:54;98177.28;;;-2.76;77.11
50774;BME280;36745;48.544;8.918;2024-01-10T10:41:14;98179.16;;;-2.44;77.50
50774;BME280;36745;48.544;8.918;2024-01-10T10:44:35;98175.69;;;-2.32;77.24
50774;BME280;36745;48.544;8.918;2024-01-10T10:48:00;98176.06;;;-2.22;76.55
50774;BME280;36745;48.544;8.918;2024-01-10T10:51:39;98175.63;;;-2.12;75.88
50774;BME280;36745;48.544;8.918;2024-01-10T10:55:02;98172.09;;;-2.24;75.59
50774;BME280;36745;48.544;8.918;2024-01-10T10:58:22;98169.69;;;-2.50;74.37
50774;BME280;36745;48.544;8.918;2024-01-10T11:01:43;98171.44;;;-2.66;75.72
50774;BME280;36745;48.544;8.918;2024-01-10T11:05:05;98170.16;;;-2.36;75.57
50774;BME280;36745;48.544;8.918;2024-01-10T11:08:25;98179.22;;;-1.95;75.73
50774;BME280;36745;48.544;8.918;2024-01-10T11:26:15;98169.88;;;-2.22;74.81
50774;BME280;36745;48.544;8.918;2024-01-10T11:29:37;98172.13;;;-2.00;75.70
50774;BME280;36745;48.544;8.918;2024-01-10T11:33:01;98165.00;;;-1.56;75.70
50774;BME280;36745;48.544;8.918;2024-01-10T11:36:21;98173.97;;;-1.28;74.99
50774;BME280;36745;48.544;8.918;2024-01-10T11:39:44;98168.59;;;-1.40;73.48
50774;BME280;36745;48.544;8.918;2024-01-10T11:43:04;98159.81;;;-1.49;74.49
50774;BME280;36745;48.544;8.918;2024-01-10T11:46:24;98153.16;;;-1.39;74.81
50774;BME280;36745;48.544;8.918;2024-01-10T11:49:54;98143.25;;;-1.07;75.48
50774;BME280;36745;48.544;8.918;2024-01-10T11:53:40;98149.63;;;-1.28;74.04
50774;BME280;36745;48.544;8.918;2024-01-10T11:57:01;98155.41;;;-1.41;74.52
50774;BME280;36745;48.544;8.918;2024-01-10T12:00:22;98159.94;;;-1.05;74.06
50774;BME280;36745;48.544;8.918;2024-01-10T12:03:42;98150.34;;;-1.43;73.64
50774;BME280;36745;48.544;8.918;2024-01-10T12:07:02;98149.75;;;-0.96;74.00
50774;BME280;36745;48.544;8.918;2024-01-10T12:10:26;98161.69;;;-0.69;74.99
50774;BME280;36745;48.544;8.918;2024-01-10T12:13:47;98147.78;;;-0.24;74.07
50774;BME280;36745;48.544;8.918;2024-01-10T12:17:07;98150.81;;;0.72;74.16
50774;BME280;36745;48.544;8.918;2024-01-10T12:20:27;98137.66;;;1.74;72.45
50774;BME280;36745;48.544;8.918;2024-01-10T12:23:48;98136.84;;;2.45;70.86
50774;BME280;36745;48.544;8.918;2024-01-10T12:27:08;98141.44;;;2.67;67.66
50774;BME280;36745;48.544;8.918;2024-01-10T12:30:27;98136.69;;;2.34;66.52
50774;BME280;36745;48.544;8.918;2024-01-10T12:33:48;98122.13;;;2.49;65.60
50774;BME280;36745;48.544;8.918;2024-01-10T12:37:10;98128.66;;;3.01;67.61
50774;BME280;36745;48.544;8.918;2024-01-10T12:40:31;98120.41;;;3.64;67.34
50774;BME280;36745;48.544;8.918;2024-01-10T12:43:55;98118.97;;;3.77;65.40
50774;BME280;36745;48.544;8.918;2024-01-10T12:47:19;98117.53;;;3.91;65.92
50774;BME280;36745;48.544;8.918;2024-01-10T12:50:39;98114.94;;;4.05;64.23
50774;BME280;36745;48.544;8.918;2024-01-10T12:53:59;98113.91;;;3.79;61.75
50774;BME280;36745;48.544;8.918;2024-01-10T12:57:19;98112.69;;;3.73;61.96
50774;BME280;36745;48.544;8.918;2024-01-10T13:00:39;98116.09;;;4.07;63.47
50774;BME280;36745;48.544;8.918;2024-01-10T13:03:59;98114.94;;;4.05;61.84
50774;BME280;36745;48.544;8.918;2024-01-10T13:07:19;98110.72;;;4.18;62.38
50774;BME280;36745;48.544;8.918;2024-01-10T13:10:39;98114.25;;;4.22;62.22
50774;BME280;36745;48.544;8.918;2024-01-10T13:13:59;98127.00;;;4.04;61.59
50774;BME280;36745;48.544;8.918;2024-01-10T13:17:20;98116.94;;;4.15;60.98
50774;BME280;36745;48.544;8.918;2024-01-10T13:20:39;98113.38;;;4.11;60.66
50774;BME280;36745;48.544;8.918;2024-01-10T13:23:59;98111.75;;;3.99;59.87
50774;BME280;36745;48.544;8.918;2024-01-10T13:27:19;98111.91;;;3.73;59.46
50774;BME280;36745;48.544;8.918;2024-01-10T13:30:39;98104.31;;;3.52;59.31
50774;BME280;36745;48.544;8.918;2024-01-10T13:34:00;98108.81;;;3.01;60.24
50774;BME280;36745;48.544;8.918;2024-01-10T13:37:20;98119.59;;;2.34;59.83
50774;BME280;36745;48.544;8.918;2024-01-10T13:40:39;98109.75;;;1.99;61.56
50774;BME280;36745;48.544;8.918;2024-01-10T13:44:00;98103.72;;;1.64;61.08
50774;BME280;36745;48.544;8.918;2024-01-10T13:47:20;98104.66;;;1.30;62.57
50774;BME280;36745;48.544;8.918;2024-01-10T13:50:43;98115.25;;;1.15;62.83
50774;BME280;36745;48.544;8.918;2024-01-10T13:54:02;98121.31;;;1.09;63.12
50774;BME280;36745;48.544;8.918;2024-01-10T13:57:22;98119.47;;;0.94;63.60
50774;BME280;36745;48.544;8.918;2024-01-10T14:00:42;98127.69;;;0.78;63.83
50774;BME280;36745;48.544;8.918;2024-01-10T14:04:02;98109.81;;;0.77;64.63
50774;BME280;36745;48.544;8.918;2024-01-10T14:07:22;98118.13;;;0.65;65.29
50774;BME280;36745;48.544;8.918;2024-01-10T14:10:42;98120.22;;;0.56;65.27
50774;BME280;36745;48.544;8.918;2024-01-10T14:14:01;98113.16;;;0.51;65.61
50774;BME280;36745;48.544;8.918;2024-01-10T14:17:22;98106.63;;;0.36;65.99
50774;BME280;36745;48.544;8.918;2024-01-10T14:20:42;98111.72;;;0.22;67.12
50774;BME280;36745;48.544;8.918;2024-01-10T14:24:02;98109.28;;;0.17;67.25
50774;BME280;36745;48.544;8.918;2024-01-10T14:27:24;98109.47;;;0.24;67.42
50774;BME280;36745;48.544;8.918;2024-01-10T14:30:45;98113.03;;;0.28;67.83
50774;BME280;36745;48.544;8.918;2024-01-10T14:34:05;98111.59;;;0.15;68.37
50774;BME280;36745;48.544;8.918;2024-01-10T14:37:25;98103.19;;;0.20;68.29
50774;BME280;36745;48.544;8.918;2024-01-10T14:40:45;98108.97;;;0.03;68.25
50774;BME280;36745;48.544;8.918;2024-01-10T14:44:05;98108.66;;;-0.11;69.27
50774;BME280;36745;48.544;8.918;2024-01-10T14:47:25;98114.06;;;-0.11;69.66
50774;BME280;36745;48.544;8.918;2024-01-10T14:50:44;98116.38;;;0.06;68.98
50774;BME280;36745;48.544;8.918;2024-01-10T14:54:04;98120.16;;;-0.14;69.85
50774;BME280;36745;48.544;8.918;2024-01-10T14:57:24;98122.47;;;-0.16;70.10
50774;BME280;36745;48.544;8.918;2024-01-10T15:00:44;98119.91;;;-0.25;70.53
50774;BME280;36745;48.544;8.918;2024-01-10T15:04:04;98135.91;;;-0.35;71.16
50774;BME280;36745;48.544;8.918;2024-01-10T15:07:23;98128.31;;;-0.30;71.51
50774;BME280;36745;48.544;8.918;2024-01-10T15:10:43;98132.56;;;-0.45;72.26
50774;BME280;36745;48.544;8.918;2024-01-10T15:14:03;98136.41;;;-0.46;71.81
50774;BME280;36745;48.544;8.918;2024-01-10T15:17:23;98138.59;;;-0.51;72.03
50774;BME280;36745;48.544;8.918;2024-01-10T15:20:43;98145.13;;;-0.68;73.17
50774;BME280;36745;48.544;8.918;2024-01-10T15:24:05;98150.06;;;-0.70;73.55
50774;BME280;36745;48.544;8.918;2024-01-10T15:27:25;98146.66;;;-0.82;74.21
50774;BME280;36745;48.544;8.918;2024-01-10T15:30:47;98155.13;;;-0.84;74.96
50774;BME280;36745;48.544;8.918;2024-01-10T15:34:07;98163.22;;;-0.84;74.80
50774;BME280;36745;48.544;8.918;2024-01-10T15:37:28;98165.06;;;-0.88;74.96
50774;BME280;36745;48.544;8.918;2024-01-10T15:40:47;98164.94;;;-0.92;75.43
50774;BME280;36745;48.544;8.918;2024-01-10T15:44:07;98170.50;;;-1.00;75.22
50774;BME280;36745;48.544;8.918;2024-01-10T15:47:28;98177.09;;;-1.13;75.98
50774;BME280;36745;48.544;8.918;2024-01-10T15:50:48;98170.78;;;-1.17;76.54
50774;BME280;36745;48.544;8.918;2024-01-10T15:54:08;98173.53;;;-1.30;77.02
50774;BME280;36745;48.544;8.918;2024-01-10T15:57:28;98174.91;;;-1.36;77.26
50774;BME280;36745;48.544;8.918;2024-01-10T16:00:48;98167.13;;;-1.37;76.83
50774;BME280;36745;48.544;8.918;2024-01-10T16:04:07;98180.78;;;-1.46;77.07
50774;BME280;36745;48.544;8.918;2024-01-10T16:07:27;98181.91;;;-1.59;78.18
50774;BME280;36745;48.544;8.918;2024-01-10T16:10:47;98188.66;;;-1.53;77.98
50774;BME280;36745;48.544;8.918;2024-01-10T16:14:06;98186.75;;;-1.64;77.72
50774;BME280;36745;48.544;8.918;2024-01-10T16:17:26;98186.88;;;-1.73;78.38
50774;BME280;36745;48.544;8.918;2024-01-10T16:20:46;98191.16;;;-1.84;79.32
50774;BME280;36745;48.544;8.918;2024-01-10T16:24:06;98190.94;;;-1.79;78.83
50774;BME280;36745;48.544;8.918;2024-01-10T16:27:27;98190.25;;;-1.88;79.87
50774;BME280;36745;48.544;8.918;2024-01-10T16:30:47;98193.41;;;-1.86;80.00
50774;BME280;36745;48.544;8.918;2024-01-10T16:34:06;98192.97;;;-2.00;80.14
50774;BME280;36745;48.544;8.918;2024-01-10T16:37:26;98189.56;;;-2.09;80.48
50774;BME280;36745;48.544;8.918;2024-01-10T16:40:46;98190.00;;;-2.07;80.86
50774;BME280;36745;48.544;8.918;2024-01-10T16:44:06;98189.34;;;-2.17;81.36
50774;BME280;36745;48.544;8.918;2024-01-10T16:47:25;98187.28;;;-2.20;81.41
50774;BME280;36745;48.544;8.918;2024-01-10T16:50:45;98189.19;;;-2.20;81.42
50774;BME280;36745;48.544;8.918;2024-01-10T16:54:05;98187.75;;;-2.18;81.48
50774;BME280;36745;48.544;8.918;2024-01-10T16:57:25;98190.25;;;-2.13;81.37
50774;BME280;36745;48.544;8.918;2024-01-10T17:00:45;98186.06;;;-2.22;81.46
50774;BME280;36745;48.544;8.918;2024-01-10T17:04:05;98194.50;;;-2.24;81.78
50774;BME280;36745;48.544;8.918;2024-01-10T17:07:24;98190.19;;;-2.37;81.78
50774;BME280;36745;48.544;8.918;2024-01-10T17:10:44;98189.53;;;-2.34;82.38
50774;BME280;36745;48.544;8.918;2024-01-10T17:14:04;98194.72;;;-2.29;82.04
50774;BME280;36745;48.544;8.918;2024-01-10T17:17:24;98191.28;;;-2.50;82.02
50774;BME280;36745;48.544;8.918;2024-01-10T17:20:44;98194.84;;;-2.58;82.10
50774;BME280;36745;48.544;8.918;2024-01-10T17:24:04;98197.56;;;-2.58;82.87
50774;BME280;36745;48.544;8.918;2024-01-10T17:27:23;98198.84;;;-2.76;83.61
50774;BME280;36745;48.544;8.918;2024-01-10T17:30:43;98199.75;;;-2.72;83.70
50774;BME280;36745;48.544;8.918;2024-01-10T17:34:03;98202.25;;;-2.67;83.51
50774;BME280;36745;48.544;8.918;2024-01-10T17:37:23;98206.75;;;-2.71;83.35
50774;BME280;36745;48.544;8.918;2024-01-10T17:40:43;98204.91;;;-2.79;83.71
50774;BME280;36745;48.544;8.918;2024-01-10T17:44:03;98204.91;;;-2.79;83.75
50774;BME280;36745;48.544;8.918;2024-01-10T17:47:23;98205.03;;;-2.97;83.17
50774;BME280;36745;48.544;8.918;2024-01-10T17:50:43;98204.72;;;-2.95;84.31
50774;BME280;36745;48.544;8.918;2024-01-10T17:54:03;98207.72;;;-2.97;84.45
50774;BME280;36745;48.544;8.918;2024-01-10T17:57:24;98210.59;;;-3.14;84.55